• Join FlightAware (Why Join?)
  • Login
  • US Flag 
02:08PM EDT


 

Airport Tracker/Info


-or-


 

Live Flight TrackerFlight Track Log ✈ N34VR ✈ 31-Oct-2013 ✈ KTMB - SVCS

Flight Track Log - Related Links

Times and Time Zones

All times are in EDT time to prevent confusion due to time zone crossing. See the N34VR flight status page for this flight to view local times or setup timezone preferences in your user account.

Time Position Orientation Groundspeed Altitude Reporting Facility
EDT Latitude Longitude Course Direction KTS MPH feet Rate Location/Type
11:46AM 25.6394 -80.3622 88° East 220 253 2,100  Level Miami Center
11:46AM 25.6406 -80.3183 88° East 248 285 2,000 -120 Descending Miami Center
11:47AM 25.6022 -80.2575 125° Southeast 246 283 2,000 300 Level Miami Center
11:48AM 25.5806 -80.1947 111° Southeast 248 285 2,600 1,020 Climbing Miami Center
11:49AM 25.5806 -80.1094 90° East 264 304 4,100 1,200 Climbing Miami Center
11:50AM 25.5831 -80.0819 84° East 265 305 4,200 2,400 Climbing Miami Center
11:51AM 25.5806 -80.0058 92° East 278 320 6,900 1,560 Climbing Miami Center
11:52AM 25.5742 -79.9181 95° East 278 320 7,400 1,500 Climbing Miami Center
11:53AM 25.5717 -79.8306 92° East 278 320 10,000 2,340 Climbing Miami Center
11:54AM 25.5694 -79.7361 91° East 289 333 12,100 2,100 Climbing Miami Center
11:55AM 25.5672 -79.6392 91° East 301 346 14,200 2,100 Climbing Miami Center
11:56AM 25.5628 -79.5400 93° East 312 359 16,300 1,800 Climbing Miami Center
11:57AM 25.5583 -79.4408 93° East 312 359 17,800 1,620 Climbing Miami Center
11:58AM 25.5517 -79.3372 94° East 323 372 19,600 1,740 Climbing Miami Center
11:59AM 25.5386 -79.2308 98° East 338 389 21,300 1,680 Climbing Miami Center
12:00PM 25.5153 -79.1200 103° East 350 403 23,000 1,800 Climbing Miami Center
12:01PM 25.4772 -79.0111 111° Southeast 363 418 25,000 1,860 Climbing Miami Center
12:02PM 25.4097 -78.9225 130° Southeast 373 429 26,800 1,620 Climbing Miami Center
12:03PM 25.3314 -78.8339 134° Southeast 384 442 28,300 1,620 Climbing Miami Center
12:04PM 25.2450 -78.7450 137° Southeast 396 456 30,100 1,740 Climbing Miami Center
12:05PM 25.1686 -78.6497 132° Southeast 407 468 31,800 1,380 Climbing Miami Center
12:06PM 25.0842 -78.5522 134° Southeast 418 481 32,900 1,200 Climbing Miami Center
12:07PM 24.9975 -78.4478 132° Southeast 437 503 34,300 1,260 Climbing Miami Center
12:08PM 24.9108 -78.3392 131° Southeast 452 520 35,500 1,200 Climbing Miami Center
12:09PM 24.8242 -78.2281 131° Southeast 465 535 36,700 1,200 Climbing Miami Center
12:10PM 24.7353 -78.1128 130° Southeast 475 547 38,000 1,200 Climbing Miami Center
12:11PM 24.6422 -77.9975 132° Southeast 490 564 39,100 1,140 Climbing Miami Center
12:12PM 24.5511 -77.8800 130° Southeast 500 575 40,300 900 Climbing Miami Center
12:13PM 24.4600 -77.7606 130° Southeast 505 581 41,000 300 Climbing Miami Center
12:14PM 24.3603 -77.6414 133° Southeast 518 596 41,000  Level Miami Center
12:15PM 24.2586 -77.5200 133° Southeast 529 609 41,000  Level Miami Center
12:16PM 24.1544 -77.3942 132° Southeast 540 621 41,000  Level Miami Center
12:17PM 24.0547 -77.2686 131° Southeast 545 627 41,000  Level Miami Center
12:18PM 23.9503 -77.1453 133° Southeast 545 627 41,000  Level Miami Center
12:19PM 23.8586 -77.0361 133° Southeast 539 620 41,000  Level Miami Center
12:20PM 23.7564 -76.9111 132° Southeast 539 620 41,000  Level Miami Center
12:21PM 23.6517 -76.7864 132° Southeast 545 627 41,000  Level Miami Center
12:22PM 23.5492 -76.6639 132° Southeast 545 627 41,000  Level Miami Center
12:23PM 23.4300 -76.5236 133° Southeast 560 644 41,000  Level Miami Center
12:24PM 23.3272 -76.3972 132° Southeast 560 644 41,000  Level Miami Center
12:25PM 23.2222 -76.2778 134° Southeast 560 644 41,000  Level Miami Center
12:26PM 23.1172 -76.1542 133° Southeast 555 639 41,000  Level Miami Center
12:27PM 23.0100 -76.0306 133° Southeast 555 639 41,000  Level Miami Center
12:28PM 22.9047 -75.9050 132° Southeast 555 639 41,000  Level Miami Center
12:29PM 22.8017 -75.7842 133° Southeast 555 639 41,000  Level Miami Center
12:30PM 22.6961 -75.6633 133° Southeast 555 639 41,000  Level Miami Center
12:31PM 22.5886 -75.5406 133° Southeast 555 639 41,000  Level Miami Center
12:32PM 22.4831 -75.4225 134° Southeast 550 633 41,000  Level Miami Center
12:33PM 22.3817 -75.3022 132° Southeast 550 633 41,000  Level Miami Center
12:34PM 22.2758 -75.1847 134° Southeast 550 633 41,000  Level Miami Center
12:35PM 22.1681 -75.0694 135° Southeast 550 633 41,000  Level Miami Center
12:36PM 22.0539 -74.9589 138° Southeast 550 633 41,000  Level Miami Center
12:37PM 21.9378 -74.8508 139° Southeast 555 639 41,000  Level Miami Center
12:38PM 21.8214 -74.7408 139° Southeast 555 639 41,000  Level Miami Center
12:39PM 21.7111 -74.6308 137° Southeast 549 632 41,000  Level Miami Center
12:40PM 21.5947 -74.5236 139° Southeast 544 626 41,000  Level Miami Center
12:41PM 21.4803 -74.4183 139° Southeast 544 626 41,000  Level Miami Center
12:42PM 21.3658 -74.3114 139° Southeast 544 626 41,000  Level Miami Center
12:43PM 21.2492 -74.2022 139° Southeast 544 626 41,000  Level Miami Center
12:44PM 21.1367 -74.0997 140° Southeast 537 618 41,000  Level Miami Center
12:45PM 21.0200 -73.9933 140° Southeast 542 624 41,000  Level Miami Center
12:46PM 20.9075 -73.8889 139° Southeast 542 624 41,000  Level Miami Center
12:47PM 20.7925 -73.7828 139° Southeast 542 624 41,000  Level Miami Center
12:48PM 20.6800 -73.6789 139° Southeast 542 624 41,000  Level Miami Center
12:49PM 20.5653 -73.5797 141° Southeast 542 624 41,000  Level Miami Center
12:50PM 20.4653 -73.4892 140° Southeast 537 618 41,000  Level Miami Center
12:51PM 20.3525 -73.3900 140° Southeast 530 610 41,000  Level Miami Center
12:52PM 20.2353 -73.2869 140° Southeast 535 616 41,000  Level Miami Center
12:53PM 20.1164 -73.1906 143° Southeast 535 616 41,000  Level Miami Center
12:54PM 19.9875 -73.1167 152° Southeast 535 616 41,000  Level Miami Center
12:56PM 19.7563 -72.9943 153° Southeast  Level FlightAware Approximate
01:03PM 18.9411 -72.5462 152° Southeast  Level FlightAware Approximate
01:04PM 18.8252 -72.4813 152° Southeast  Level FlightAware Approximate
01:05PM 18.7092 -72.4164 152° Southeast  Level FlightAware Approximate
01:06PM 18.5928 -72.3525 153° Southeast  Level FlightAware Approximate
01:07PM 18.4760 -72.2896 153° Southeast  Level FlightAware Approximate
01:08PM 18.3630 -72.2197 148° Southeast  Level FlightAware Approximate
01:09PM 18.2521 -72.1458 148° Southeast  Level FlightAware Approximate
01:10PM 18.1413 -72.0719 148° Southeast  Level FlightAware Approximate
01:11PM 18.0268 -72.0045 151° Southeast  Level FlightAware Approximate
01:12PM 17.9125 -71.9367 149° Southeast  Level FlightAware Approximate
01:13PM 17.8004 -71.8653 149° Southeast  Level FlightAware Approximate
01:14PM 17.6882 -71.7939 149° Southeast  Level FlightAware Approximate
01:15PM 17.5760 -71.7226 149° Southeast  Level FlightAware Approximate
01:16PM 17.4659 -71.6487 150° Southeast  Level FlightAware Approximate
01:17PM 17.3524 -71.5796 150° Southeast  Level FlightAware Approximate
01:18PM 17.2390 -71.5106 150° Southeast  Level FlightAware Approximate
01:19PM 17.1258 -71.4411 149° Southeast  Level FlightAware Approximate
01:20PM 17.0132 -71.3707 149° Southeast  Level FlightAware Approximate
01:21PM 16.9006 -71.3004 149° Southeast  Level FlightAware Approximate
01:22PM 16.7875 -71.2309 150° Southeast  Level FlightAware Approximate
01:23PM 16.6744 -71.1616 150° Southeast  Level FlightAware Approximate
01:24PM 16.5612 -71.0923 150° Southeast  Level FlightAware Approximate
01:25PM 16.4480 -71.0230 150° Southeast  Level FlightAware Approximate
01:26PM 16.3348 -70.9539 150° Southeast  Level FlightAware Approximate
01:27PM 16.2216 -70.8849 150° Southeast  Level FlightAware Approximate
01:28PM 16.1084 -70.8159 150° Southeast  Level FlightAware Approximate
01:29PM 15.9948 -70.7476 155° Southeast  Level FlightAware Approximate
01:30PM 15.8755 -70.6909 155° Southeast  Level FlightAware Approximate
01:31PM 15.7561 -70.6343 155° Southeast  Level FlightAware Approximate
01:32PM 15.6368 -70.5778 155° Southeast  Level FlightAware Approximate
01:33PM 15.5174 -70.5213 156° South  Level FlightAware Approximate
01:34PM 15.3980 -70.4649 156° South  Level FlightAware Approximate
01:35PM 15.2785 -70.4086 156° South  Level FlightAware Approximate
01:36PM 15.1591 -70.3523 156° South  Level FlightAware Approximate
01:37PM 15.0394 -70.2967 156° South  Level FlightAware Approximate
01:38PM 14.9192 -70.2422 156° South  Level FlightAware Approximate
01:39PM 14.7990 -70.1878 156° South  Level FlightAware Approximate
01:40PM 14.6788 -70.1334 156° South  Level FlightAware Approximate
01:41PM 14.5586 -70.0791 156° South  Level FlightAware Approximate
01:42PM 14.4384 -70.0248 156° South  Level FlightAware Approximate
01:43PM 14.3184 -69.9702 156° South  Level FlightAware Approximate
01:44PM 14.1985 -69.9152 156° South  Level FlightAware Approximate
01:45PM 14.0786 -69.8603 156° South  Level FlightAware Approximate
01:46PM 13.9587 -69.8054 156° South  Level FlightAware Approximate
01:47PM 13.8388 -69.7506 156° South  Level FlightAware Approximate
01:48PM 13.7188 -69.6958 156° South  Level FlightAware Approximate
01:49PM 13.5989 -69.6411 156° South  Level FlightAware Approximate
01:50PM 13.4789 -69.5865 156° South  Level FlightAware Approximate
01:51PM 13.3590 -69.5319 156° South  Level FlightAware Approximate
01:52PM 13.2390 -69.4773 156° South  Level FlightAware Approximate
01:53PM 13.1190 -69.4229 156° South  Level FlightAware Approximate
01:54PM 12.9990 -69.3684 156° South  Level FlightAware Approximate
01:55PM 12.8790 -69.3141 156° South  Level FlightAware Approximate
01:56PM 12.7589 -69.2598 156° South  Level FlightAware Approximate
01:57PM 12.6389 -69.2055 156° South  Level FlightAware Approximate
01:58PM 12.5189 -69.1513 156° South  Level FlightAware Approximate
01:59PM 12.3988 -69.0971 156° South  Level FlightAware Approximate
02:00PM 12.2787 -69.0430 156° South  Level FlightAware Approximate
02:01PM 12.1655 -68.9793 132° Southeast  Level FlightAware Approximate
02:02PM 12.0785 -68.8789 132° Southeast  Level FlightAware Approximate
02:03PM 11.9914 -68.7785 132° Southeast  Level FlightAware Approximate
02:04PM 11.9073 -68.6757 129° Southeast  Level FlightAware Approximate
02:05PM 11.8236 -68.5725 133° Southeast  Level FlightAware Approximate
02:06PM 11.7348 -68.4738 133° Southeast  Level FlightAware Approximate
02:07PM 11.6466 -68.3746 132° Southeast  Level FlightAware Approximate
02:08PM 11.5603 -68.2738 124° Southeast  Level FlightAware Approximate
02:09PM 11.4829 -68.1662 136° Southeast  Level FlightAware Approximate
02:10PM 11.3920 -68.0699 130° Southeast  Level FlightAware Approximate
02:11PM 11.3080 -67.9671 130° Southeast  Level FlightAware Approximate
02:12PM 11.2213 -67.8668 133° Southeast  Level FlightAware Approximate
02:13PM 11.1321 -67.7687 133° Southeast  Level FlightAware Approximate
02:14PM 11.0449 -67.6689 131° Southeast  Level FlightAware Approximate
02:15PM 10.9586 -67.5682 131° Southeast  Level FlightAware Approximate
02:16PM 10.8723 -67.4676 131° Southeast  Level FlightAware Approximate
02:17PM 10.7858 -67.3671 132° Southeast  Level FlightAware Approximate
02:18PM 10.6986 -67.2674 132° Southeast  Level FlightAware Approximate
02:19PM 10.6150 -67.1645 129° Southeast  Level FlightAware Approximate
02:20PM 10.5298 -67.0632 135° Southeast  Level FlightAware Approximate
02:21PM 10.4363 -66.9696 135° Southeast  Level FlightAware Approximate
02:22PM 10.3500 -66.9444 127° Southeast  Level Estimated
02:23PM 10.3500 -66.9444 270° West  Level Estimated
02:24PM 10.3500 -66.9444 270° West  Level Estimated
02:25PM 10.3500 -66.9444 270° West  Level Estimated
02:26PM 10.3500 -66.9444 270° West  Level Estimated
02:27PM 10.3500 -66.9444 270° West  Level Estimated
02:28PM 10.3500 -66.9444 270° West  Level Estimated
02:29PM 10.3500 -66.9444 270° West  Level Estimated
02:30PM 10.3500 -66.9444 270° West  Level Estimated
02:31PM 10.3500 -66.9444 270° West  Level Estimated
02:32PM 10.3500 -66.9444 270° West  Level Estimated
02:33PM 10.3500 -66.9444 270° West  Level Estimated
02:34PM 10.3500 -66.9444 270° West  Level Estimated
02:35PM 10.3500 -66.9444 270° West  Level Estimated
02:36PM 10.3500 -66.9444 270° West  Level Estimated
02:37PM 10.3500 -66.9444 270° West  Level Estimated
02:38PM 10.3500 -66.9444 270° West  Level Estimated
02:39PM 10.3500 -66.9444 270° West  Level Estimated